Time;durP1;ratioP1;P1;durP2;ratioP2;P2;SDS_P1;SDS_P2;PMS_P1;PMS_P2;Temp;Humidity;BMP_temperature;BMP_pressure;BME280_temperature;BME280_humidity;BME280_pressure;Samples;Min_cycle;Max_cycle;Signal;HPM_P1;HPM_P2
2021/06/29 18:48:10;;;;;;;6.03;3.20;;;;;;;22.53;55.93;101314.63;5052322;27;1672011;-72
2021/06/29 18:50:35;;;;;;;4.53;3.40;;;;;;;22.49;56.05;101329.59;5072923;28;20282;-73
2021/06/29 18:53:03;;;;;;;6.97;4.80;;;;;;;22.36;56.21;101318.34;5088304;28;20036;-73
2021/06/29 18:55:31;;;;;;;5.43;3.55;;;;;;;22.29;56.57;101311.44;5089561;28;20478;-73
2021/06/29 18:57:58;;;;;;;3.80;3.38;;;;;;;22.25;56.60;101309.72;5090895;28;20031;-73
2021/06/29 19:00:27;;;;;;;3.63;2.97;;;;;;;22.25;56.88;101307.09;5072561;28;20066;-73
2021/06/29 19:02:53;;;;;;;7.15;4.05;;;;;;;22.22;57.18;101304.50;5090749;28;20531;-73
2021/06/29 19:05:19;;;;;;;5.28;3.63;;;;;;;22.21;57.19;101302.75;5090867;28;20032;-73
2021/06/29 19:07:46;;;;;;;6.57;3.63;;;;;;;22.21;57.20;101308.00;5090592;28;20032;-73
2021/06/29 19:10:12;;;;;;;7.18;3.38;;;;;;;22.22;57.30;101311.53;5072417;28;20119;-73
2021/06/29 19:12:39;;;;;;;4.15;3.55;;;;;;;22.23;57.56;101311.50;5090762;28;20052;-73
2021/06/29 19:15:07;;;;;;;7.40;3.33;;;;;;;22.23;57.49;101306.22;5090517;28;20457;-73
2021/06/29 19:17:33;;;;;;;4.72;2.95;;;;;;;22.24;57.56;101315.88;5089204;28;20032;-73
2021/06/29 19:19:58;;;;;;;5.18;3.30;;;;;;;22.25;57.98;101311.50;5089088;28;20028;-73
2021/06/29 19:22:23;;;;;;;5.93;3.20;;;;;;;22.24;58.04;101307.09;5090241;28;20055;-74
2021/06/29 19:24:49;;;;;;;6.88;3.47;;;;;;;22.23;57.82;101310.63;5089142;28;20038;-73
2021/06/29 19:27:14;;;;;;;5.22;3.17;;;;;;;22.27;57.97;101313.22;5072121;28;20427;-73
2021/06/29 19:29:41;;;;;;;5.80;3.30;;;;;;;22.25;57.92;101307.09;5089205;28;20032;-73
2021/06/29 19:32:07;;;;;;;4.57;3.40;;;;;;;22.27;58.08;101302.69;5072173;28;20031;-73
2021/06/29 19:34:32;;;;;;;4.53;3.42;;;;;;;22.25;58.09;101299.19;5090022;28;20024;-73
2021/06/29 19:36:57;;;;;;;5.75;3.88;;;;;;;22.23;58.15;101302.72;5088976;28;20086;-73
2021/06/29 19:39:23;;;;;;;7.32;3.40;;;;;;;22.22;58.03;101307.13;5090164;28;20024;-73
2021/06/29 19:41:48;;;;;;;3.90;3.28;;;;;;;22.23;58.34;101308.00;5088885;28;20033;-73
2021/06/29 19:44:14;;;;;;;6.45;3.60;;;;;;;22.23;58.02;101302.72;5090146;28;20034;-73
2021/06/29 19:46:40;;;;;;;5.28;3.20;;;;;;;22.24;58.34;101305.34;5088367;28;20131;-74
2021/06/29 19:49:05;;;;;;;5.55;3.42;;;;;;;22.27;58.32;101304.44;5088443;28;20131;-73
2021/06/29 19:51:31;;;;;;;5.63;3.00;;;;;;;22.28;58.50;101309.69;5088500;28;20071;-73
2021/06/29 19:53:58;;;;;;;5.30;3.30;;;;;;;22.29;58.29;101306.16;5089774;28;20024;-73
2021/06/29 19:56:24;;;;;;;3.80;3.13;;;;;;;22.31;58.34;101307.03;5088562;28;20465;-73
2021/06/29 19:58:50;;;;;;;3.75;3.22;;;;;;;22.31;58.30;101312.28;5078493;28;20138;-74
2021/06/29 20:01:17;;;;;;;4.80;3.50;;;;;;;22.32;58.29;101311.41;5074895;28;20039;-73
2021/06/29 20:03:43;;;;;;;7.85;4.18;;;;;;;22.31;58.41;101308.78;5075928;28;20024;-73
2021/06/29 20:06:09;;;;;;;6.70;3.85;;;;;;;22.33;58.32;101310.47;5075975;28;20031;-73
2021/06/29 20:08:34;;;;;;;6.95;4.18;;;;;;;22.35;58.34;101310.47;5075980;28;20382;-73
2021/06/29 20:11:00;;;;;;;8.38;3.60;;;;;;;22.34;58.41;101308.72;5076118;28;20024;-73
2021/06/29 20:13:26;;;;;;;4.28;3.53;;;;;;;22.32;58.64;101311.41;5074615;28;20058;-73
2021/06/29 20:15:51;;;;;;;7.45;3.88;;;;;;;22.33;58.51;101317.53;5075816;28;20029;-73
2021/06/29 20:18:17;;;;;;;7.40;3.75;;;;;;;22.33;58.45;101320.19;5074499;28;20029;-74
2021/06/29 20:20:47;;;;;;;5.45;3.53;;;;;;;22.36;58.30;101318.34;5074579;28;20025;-73
2021/06/29 20:23:13;;;;;;;4.63;4.03;;;;;;;22.35;58.33;101329.78;5075792;28;20040;-73
2021/06/29 20:25:39;;;;;;;4.25;3.85;;;;;;;22.37;58.43;101328.00;5075826;28;20021;-73
2021/06/29 20:28:05;;;;;;;4.72;3.28;;;;;;;22.37;58.31;101330.66;5075833;28;20082;-73
2021/06/29 20:30:30;;;;;;;6.18;4.30;;;;;;;22.36;58.36;101328.03;5074358;28;20029;-73
2021/06/29 20:32:55;;;;;;;5.93;3.45;;;;;;;22.36;58.38;101331.53;5074283;28;20536;-73
2021/06/29 20:35:21;;;;;;;6.53;4.38;;;;;;;22.34;58.38;101327.16;5074444;28;20035;-71
2021/06/29 20:37:49;;;;;;;8.27;3.92;;;;;;;22.37;58.60;101341.19;5057458;28;20359;-71
2021/06/29 20:40:14;;;;;;;5.10;3.70;;;;;;;22.37;58.48;101335.91;5075466;28;20100;-71
2021/06/29 20:42:40;;;;;;;7.05;4.32;;;;;;;22.36;58.64;101326.25;5075411;28;20107;-73
2021/06/29 20:45:06;;;;;;;7.32;3.92;;;;;;;22.37;58.46;101325.38;5073990;28;20397;-73
2021/06/29 20:47:32;;;;;;;5.50;3.97;;;;;;;22.35;58.50;101337.69;5073542;28;20379;-73
2021/06/29 20:49:58;;;;;;;4.78;3.92;;;;;;;22.37;58.35;101341.19;5075201;28;20027;-74
2021/06/29 20:52:25;;;;;;;4.55;3.50;;;;;;;22.37;58.42;101335.91;5073896;28;20086;-73
2021/06/29 20:54:51;;;;;;;5.68;3.30;;;;;;;22.38;58.44;101345.56;5075143;28;20535;-72
2021/06/29 20:57:16;;;;;;;6.35;3.65;;;;;;;22.37;58.29;101341.19;5075050;28;20025;-71
2021/06/29 20:59:45;;;;;;;5.93;4.30;;;;;;;22.37;58.31;101332.41;5075126;28;20066;-71
2021/06/29 21:02:10;;;;;;;5.90;4.68;;;;;;;22.37;58.32;101345.56;5074941;28;20031;-71
2021/06/29 21:04:36;;;;;;;5.45;3.53;;;;;;;22.38;58.17;101342.06;5075218;28;20434;-71
2021/06/29 21:07:01;;;;;;;5.18;3.97;;;;;;;22.36;58.18;101339.44;5073650;28;20447;-71
2021/06/29 21:09:27;;;;;;;3.58;2.78;;;;;;;22.38;58.21;101352.59;5074198;28;20028;-72
2021/06/29 21:11:52;;;;;;;7.97;4.28;;;;;;;22.36;58.14;101344.69;5075356;28;20437;-71
2021/06/29 21:14:17;;;;;;;4.50;3.65;;;;;;;22.36;58.26;101343.84;5041144;28;20056;-71
2021/06/29 21:16:43;;;;;;;7.25;4.00;;;;;;;22.37;57.96;101351.72;5074230;28;20029;-71
2021/06/29 21:19:08;;;;;;;5.68;3.65;;;;;;;22.37;58.21;101349.09;5076254;28;20024;-71
2021/06/29 21:21:33;;;;;;;7.50;4.13;;;;;;;22.36;58.37;101352.59;5074276;28;20029;-71
2021/06/29 21:23:59;;;;;;;5.75;4.20;;;;;;;22.37;58.38;101362.25;5073425;28;20028;-71
2021/06/29 21:26:25;;;;;;;6.32;3.80;;;;;;;22.34;58.25;101357.03;5056461;28;20029;-73
2021/06/29 21:28:54;;;;;;;5.68;3.83;;;;;;;22.34;58.44;101362.28;5056591;28;20536;-73
2021/06/29 21:31:20;;;;;;;5.70;3.72;;;;;;;22.31;58.21;101358.84;5074499;28;20120;-73
2021/06/29 21:33:46;;;;;;;4.85;3.40;;;;;;;22.26;58.24;101353.63;5073097;28;20447;-73
2021/06/29 21:36:12;;;;;;;4.15;3.70;;;;;;;22.25;58.32;101351.88;5074356;28;20021;-71
2021/06/29 21:38:37;;;;;;;4.57;4.07;;;;;;;22.27;58.26;101357.13;5074714;28;20401;-72
2021/06/29 21:41:03;;;;;;;4.43;3.67;;;;;;;22.25;58.27;101359.78;5056256;28;20032;-72
2021/06/29 21:43:28;;;;;;;4.30;3.30;;;;;;;22.25;58.15;101357.16;5073161;28;20029;-71
2021/06/29 21:45:54;;;;;;;5.00;4.13;;;;;;;22.24;58.12;101355.41;5072858;28;20032;-72
2021/06/29 21:48:20;;;;;;;5.97;3.85;;;;;;;22.23;58.09;101351.03;5074187;28;20084;-72
2021/06/29 21:50:47;;;;;;;4.43;3.53;;;;;;;22.24;58.07;101344.88;5073667;28;20466;-72
2021/06/29 21:53:12;;;;;;;4.85;3.53;;;;;;;22.23;58.00;101350.16;5075241;28;20072;-72
2021/06/29 21:55:38;;;;;;;5.72;3.38;;;;;;;22.20;58.10;101347.56;5076636;28;20047;-72
2021/06/29 21:58:04;;;;;;;4.43;3.63;;;;;;;22.21;57.88;101347.53;5075511;28;20020;-72
2021/06/29 22:00:29;;;;;;;6.57;4.00;;;;;;;22.20;58.06;101342.31;5075690;28;20060;-73
2021/06/29 22:02:55;;;;;;;3.67;3.33;;;;;;;22.21;57.96;101350.16;5042498;28;20032;-72
2021/06/29 22:05:20;;;;;;;5.18;3.85;;;;;;;22.19;57.90;101346.69;5074442;28;20473;-74
2021/06/29 22:07:45;;;;;;;4.55;2.90;;;;;;;22.20;57.78;101348.41;5074250;28;20084;-74
2021/06/29 22:10:11;;;;;;;5.38;4.10;;;;;;;22.15;57.86;101342.34;5073721;28;20036;-71
2021/06/29 22:12:37;;;;;;;4.70;3.35;;;;;;;22.18;57.68;101344.97;5073690;28;20085;-72
2021/06/29 22:15:03;;;;;;;5.72;3.88;;;;;;;22.19;57.75;101340.56;5074257;28;20458;-71
2021/06/29 22:17:29;;;;;;;5.90;3.60;;;;;;;22.19;57.85;101340.56;5074036;28;20465;-71
2021/06/29 22:19:54;;;;;;;4.82;3.75;;;;;;;22.18;57.86;101339.69;5073161;28;20043;-72
2021/06/29 22:22:20;;;;;;;5.22;4.20;;;;;;;22.17;57.91;101340.59;5072453;28;20412;-72
2021/06/29 22:24:47;;;;;;;5.35;3.40;;;;;;;22.17;57.78;101339.72;5073700;28;20032;-71
2021/06/29 22:27:13;;;;;;;6.07;3.42;;;;;;;22.17;57.63;101334.44;5073474;28;20016;-71
2021/06/29 22:29:39;;;;;;;3.95;3.55;;;;;;;22.16;57.80;101338.84;5055749;28;20029;-72
2021/06/29 22:32:06;;;;;;;5.63;3.22;;;;;;;22.15;57.86;101331.81;5073535;28;20032;-71
2021/06/29 22:34:32;;;;;;;4.28;3.88;;;;;;;22.16;57.82;101332.69;5071962;28;20547;-71
2021/06/29 22:36:57;;;;;;;4.55;3.30;;;;;;;22.16;57.83;101332.69;5073396;28;20060;-72
2021/06/29 22:39:23;;;;;;;5.28;4.00;;;;;;;22.15;57.70;101336.22;5072188;28;20063;-72
2021/06/29 22:41:50;;;;;;;5.38;3.17;;;;;;;22.14;57.69;101330.06;5055352;28;20028;-71
2021/06/29 22:44:15;;;;;;;4.40;3.83;;;;;;;22.12;57.77;101323.94;5072197;28;20024;-71
2021/06/29 22:46:41;;;;;;;4.53;3.60;;;;;;;22.15;57.69;101328.31;5054997;28;20397;-71
2021/06/29 22:49:06;;;;;;;4.35;3.42;;;;;;;22.13;57.91;101333.59;5071976;28;20109;-72
2021/06/29 22:51:32;;;;;;;5.32;4.00;;;;;;;22.14;57.81;101326.56;5055369;28;20120;-71
2021/06/29 22:53:59;;;;;;;4.75;3.63;;;;;;;22.12;57.83;101320.44;5071985;28;20036;-71
2021/06/29 22:56:25;;;;;;;4.65;3.30;;;;;;;22.13;57.65;101322.19;5055479;28;20120;-71
2021/06/29 22:58:51;;;;;;;4.65;3.42;;;;;;;22.12;57.66;101318.69;5073441;28;20036;-71
2021/06/29 23:01:17;;;;;;;4.45;3.55;;;;;;;22.09;57.81;101316.94;5071986;28;20086;-71
2021/06/29 23:03:42;;;;;;;4.75;4.30;;;;;;;22.12;57.75;101321.31;5071819;28;20028;-72
2021/06/29 23:06:08;;;;;;;12.55;4.38;;;;;;;22.12;57.63;101313.41;5055434;28;20030;-71
2021/06/29 23:08:33;;;;;;;4.63;3.63;;;;;;;22.12;57.71;101326.56;5073045;28;20122;-72
2021/06/29 23:10:59;;;;;;;5.13;3.80;;;;;;;22.12;57.83;101326.56;5073093;28;20028;-72
2021/06/29 23:13:24;;;;;;;4.38;3.97;;;;;;;22.12;57.73;101328.34;5055183;28;20070;-72
2021/06/29 23:15:50;;;;;;;4.20;3.50;;;;;;;22.11;57.73;101330.09;5072954;28;20108;-72
2021/06/29 23:18:15;;;;;;;4.22;3.72;;;;;;;22.11;57.72;101330.09;5073084;28;20036;-72
2021/06/29 23:20:40;;;;;;;5.05;3.78;;;;;;;22.10;57.67;101331.88;5071992;28;20431;-72
2021/06/29 23:23:06;;;;;;;4.40;3.75;;;;;;;22.08;57.99;101328.38;5072901;28;20081;-72
2021/06/29 23:25:31;;;;;;;3.33;2.72;;;;;;;22.08;57.72;101330.13;5055018;28;20039;-72
2021/06/29 23:27:57;;;;;;;3.20;2.85;;;;;;;22.09;57.78;101334.50;5055171;28;20028;-72
2021/06/29 23:30:22;;;;;;;4.43;3.83;;;;;;;22.08;57.58;101328.38;5071700;28;20470;-72
2021/06/29 23:32:47;;;;;;;3.50;3.20;;;;;;;22.08;57.86;101325.75;5071870;28;20105;-72
2021/06/29 23:35:13;;;;;;;4.03;3.05;;;;;;;22.08;57.72;101325.75;5076553;28;20098;-72
2021/06/29 23:37:38;;;;;;;5.40;4.10;;;;;;;22.08;57.67;101319.59;5075472;28;20025;-72
2021/06/29 23:40:09;;;;;;;5.72;3.80;;;;;;;22.05;57.80;101307.38;5075291;28;20139;-72
2021/06/29 23:42:36;;;;;;;4.43;3.00;;;;;;;22.09;57.67;101318.72;5075141;28;20094;-72
2021/06/29 23:45:02;;;;;;;6.07;3.50;;;;;;;22.08;57.79;101314.31;5075206;28;20111;-72
2021/06/29 23:47:27;;;;;;;5.38;4.05;;;;;;;22.04;57.66;101304.75;5074976;28;20059;-72
2021/06/29 23:49:53;;;;;;;4.07;3.38;;;;;;;22.06;57.75;101308.22;5076537;28;20035;-72
2021/06/29 23:52:19;;;;;;;5.38;3.20;;;;;;;22.07;57.58;101307.34;5075314;28;20024;-72
2021/06/29 23:54:44;;;;;;;6.03;4.15;;;;;;;22.07;57.70;101299.44;5076246;28;20059;-72
2021/06/29 23:57:10;;;;;;;4.07;3.33;;;;;;;22.07;57.68;101304.72;5075071;28;20478;-72
2021/06/29 23:59:35;;;;;;;4.70;3.65;;;;;;;22.05;57.56;101295.97;5075114;28;20393;-72
